ELLX Airport Information

Runway Information
Runway 06 Length 13123 ft width 197 ft
Elevation 1158 ft Threshold 0 ft Heading 60
Runway 24 Length 13123 ft Width 197 ft
Elevation 1214 ft Threshold 0 ft Heading 240
Airport Frequencies
Type APP Name APP Frequency 118.9 MHZ
Type ATIS Name ATIS Frequency 135.55 MHZ
Type TWR Name TWR Frequency 118.1 MHZ
Airport Navaids
Type NDB Name Luxembourg Frequency 369 KHZ
Type VOR-DME Name Luxembourg Frequency 112250 KHZ
Type NDB Name Luxembourg Frequency 346 KHZ
Airport Weather Information & NOTAM
ADDS - METARS form results

(1843 UTC 24 May 2022)
Data provider http://aviationweather.gov/metar/data/
 
METAR text: ELLX 241820Z 24008KT CAVOK 14/07 Q1011 NOSIG
Conditions at: ELLX (LUXEMBOURG (AUT), LU) observed 1820 UTC 24 May 2022
Temperature: 14.0°C (57°F)
Dewpoint: 7.0°C (45°F) [RH = 63%]
Pressure (altimeter): 29.85 inches Hg (1011.0 mb)
Winds: from the WSW (240 degrees) at 9 MPH (8 knots; 4.1 m/s)
Visibility: 6 or more miles (10+ km)
Ceiling: ceiling and visibility are OK
Clouds: unknown
Weather: no significant weather observed at this time

METAR text: ELLX 241750Z 23007KT CAVOK 14/07 Q1011 NOSIG
Conditions at: ELLX (LUXEMBOURG (AUT), LU) observed 1750 UTC 24 May 2022
Temperature: 14.0°C (57°F)
Dewpoint: 7.0°C (45°F) [RH = 63%]
Pressure (altimeter): 29.85 inches Hg (1011.0 mb)
Winds: from the SW (230 degrees) at 8 MPH (7 knots; 3.6 m/s)
Visibility: 6 or more miles (10+ km)
Ceiling: ceiling and visibility are OK
Clouds: unknown
Weather: no significant weather observed at this time

Forecast for: ELLX (LUXEMBOURG (AUT), LU)
Text: TAF ELLX 241700Z 2418/2524 24012KT CAVOK
Forecast period: 1800 UTC 24 May 2022 to 0000 UTC 26 May 2022
Forecast type: FROM: standard forecast or significant change
Winds: from the WSW (240 degrees) at 14 MPH (12 knots; 6.2 m/s)
Visibility: 6 or more miles (10+ km)
Ceiling: unknown
Clouds: missing
Weather: NSW  (no significant weather)
Text: TEMPO 2502/2506 26003KT 4500 BR SCT004
Forecast period: 0200 to 0600 UTC 25 May 2022
Forecast type: TEMPORARY: The following changes expected for less than half the time period
Winds: from the W (260 degrees) at 3 MPH (3 knots; 1.5 m/s)
Visibility: 2.80 miles (4.51 km)
Ceiling: at least 12,000 feet AGL
Clouds: scattered clouds at 400 feet AGL
Weather: BR  (mist)
Text: TEMPO 2512/2518 25015G25KT
Forecast period: 1200 to 1800 UTC 25 May 2022
Forecast type: TEMPORARY: The following changes expected for less than half the time period
Winds: from the WSW (250 degrees) at 17 MPH (15 knots; 7.7 m/s)
gusting to 29 MPH (25 knots; 12.9 m/s)
Visibility: missing
Ceiling: unknown
Clouds: missing
Weather: no significant weather forecast for this period